createdAt,value
2017-12-21T00:18:06.641Z,100089.30
2017-12-21T00:38:44.984Z,100082.94
2017-12-21T00:59:20.365Z,100079.19
2017-12-21T01:19:53.378Z,100061.53
2017-12-21T01:40:26.496Z,100065.35
2017-12-21T02:01:02.693Z,100056.06
2017-12-21T02:21:37.039Z,100062.97
2017-12-21T02:42:10.162Z,100100.02
2017-12-21T03:02:43.818Z,100104.30
2017-12-21T03:23:17.639Z,100129.03
2017-12-21T03:43:54.753Z,100122.96
2017-12-21T04:04:31.374Z,100112.22
2017-12-21T04:25:07.614Z,100083.83
2017-12-21T05:03:42.234Z,100054.25
2017-12-21T05:24:16.595Z,100056.89
2017-12-21T05:44:58.046Z,100060.93
2017-12-21T06:05:32.046Z,100061.81
2017-12-21T06:26:07.318Z,100070.34
2017-12-21T06:46:44.751Z,100057.91
2017-12-21T07:07:20.626Z,100064.14
2017-12-21T07:27:54.973Z,100079.27
2017-12-21T07:48:27.404Z,100084.94
2017-12-21T08:09:01.223Z,100100.03
2017-12-21T08:29:34.884Z,100104.63
2017-12-21T08:50:05.619Z,100120.84
2017-12-21T09:10:36.894Z,100124.63
2017-12-21T09:31:11.245Z,100116.75
2017-12-21T09:51:46.517Z,100118.13
2017-12-21T10:12:20.894Z,100120.48
2017-12-21T10:32:52.758Z,100110.39
2017-12-21T10:53:26.303Z,100083.05
2017-12-21T11:14:00.229Z,100076.09
2017-12-21T11:34:35.759Z,100052.23
2017-12-21T11:55:09.847Z,100041.29
2017-12-21T12:15:48.195Z,100031.80
2017-12-21T12:36:23.475Z,100009.02
2017-12-21T12:56:59.707Z,100019.45
2017-12-21T13:17:34.942Z,100007.48
2017-12-21T13:38:06.234Z,100005.22
2017-12-21T13:58:39.945Z,99998.91
2017-12-21T14:19:20.712Z,100003.83
2017-12-21T14:39:52.656Z,100026.81
2017-12-21T15:00:27.602Z,100024.78
2017-12-21T15:21:05.021Z,100022.23
2017-12-21T15:41:38.152Z,100018.41
2017-12-21T16:02:11.569Z,100049.59
2017-12-21T16:22:45.001Z,100073.12
2017-12-21T16:43:22.187Z,100080.92
2017-12-21T17:21:56.904Z,100098.97
2017-12-21T17:42:33.099Z,100106.69
2017-12-21T18:03:08.368Z,100117.62
2017-12-21T18:23:43.806Z,100125.88
2017-12-21T18:44:20.453Z,100129.16
2017-12-21T19:04:58.793Z,100141.80
2017-12-21T19:25:34.070Z,100145.93
2017-12-21T19:46:10.570Z,100144.55
2017-12-21T20:06:49.833Z,100142.66
2017-12-21T20:27:21.114Z,100139.51
2017-12-21T20:47:56.087Z,100141.25
2017-12-21T21:08:28.279Z,100119.11
2017-12-21T21:29:01.708Z,100116.50
2017-12-21T21:49:33.907Z,100121.14
2017-12-21T22:10:10.100Z,100138.25
2017-12-21T22:30:45.370Z,100130.71
2017-12-21T22:51:18.491Z,100128.72
2017-12-21T23:11:51.976Z,100113.12
2017-12-21T23:32:26.583Z,100089.13
2017-12-21T23:53:06.486Z,100069.23
